createdAt,value
2018-08-22T00:00:26.310Z,1014.42
2018-08-22T00:01:26.330Z,1014.41
2018-08-22T00:02:26.302Z,1014.40
2018-08-22T00:03:26.303Z,1014.40
2018-08-22T00:04:26.293Z,1014.39
2018-08-22T00:05:26.293Z,1014.39
2018-08-22T00:06:26.275Z,1014.39
2018-08-22T00:07:26.290Z,1014.46
2018-08-22T00:08:26.274Z,1014.43
2018-08-22T00:09:26.279Z,1014.44
2018-08-22T00:10:26.277Z,1014.45
2018-08-22T00:11:26.268Z,1014.43
2018-08-22T00:12:26.283Z,1014.42
2018-08-22T00:13:26.262Z,1014.41
2018-08-22T00:14:26.268Z,1014.41
2018-08-22T00:15:26.255Z,1014.40
2018-08-22T00:16:26.249Z,1014.40
2018-08-22T00:17:26.241Z,1014.41
2018-08-22T00:18:26.252Z,1014.39
2018-08-22T00:19:26.238Z,1014.37
2018-08-22T00:20:26.233Z,1014.35
2018-08-22T00:21:26.239Z,1014.38
2018-08-22T00:22:26.282Z,1014.36
2018-08-22T00:23:26.225Z,1014.38
2018-08-22T00:24:26.229Z,1014.38
2018-08-22T00:25:26.293Z,1014.35
2018-08-22T00:26:26.212Z,1014.37
2018-08-22T00:27:26.223Z,1014.34
2018-08-22T00:28:26.212Z,1014.32
2018-08-22T00:29:26.215Z,1014.32
2018-08-22T00:30:26.207Z,1014.34
2018-08-22T00:31:26.194Z,1014.35
2018-08-22T00:32:26.200Z,1014.33
2018-08-22T00:33:26.188Z,1014.35
2018-08-22T00:34:26.199Z,1014.35
2018-08-22T00:35:26.204Z,1014.34
2018-08-22T00:36:26.177Z,1014.37
2018-08-22T00:37:26.180Z,1014.37
2018-08-22T00:38:26.179Z,1014.39
2018-08-22T00:39:26.177Z,1014.33
2018-08-22T00:40:26.165Z,1014.31
2018-08-22T00:41:26.165Z,1014.33
2018-08-22T00:42:26.166Z,1014.35
2018-08-22T00:43:26.163Z,1014.28
2018-08-22T00:44:26.157Z,1014.27
2018-08-22T00:45:26.153Z,1014.28
2018-08-22T00:46:26.153Z,1014.27
2018-08-22T00:47:26.149Z,1014.26
2018-08-22T00:48:26.149Z,1014.25
2018-08-22T00:49:26.143Z,1014.23
2018-08-22T00:50:26.135Z,1014.23
2018-08-22T00:51:26.125Z,1014.23
2018-08-22T00:52:26.129Z,1014.25
2018-08-22T00:53:26.120Z,1014.20
2018-08-22T00:54:26.119Z,1014.20
2018-08-22T00:55:26.123Z,1014.17
2018-08-22T00:56:26.150Z,1014.20
2018-08-22T00:57:26.113Z,1014.15
2018-08-22T00:58:26.109Z,1014.15
2018-08-22T00:59:26.106Z,1014.16
2018-08-22T01:00:26.106Z,1014.15
2018-08-22T01:01:26.091Z,1014.14
2018-08-22T01:02:26.100Z,1014.15
2018-08-22T01:03:26.094Z,1014.11
2018-08-22T01:04:26.080Z,1014.13
2018-08-22T01:05:26.083Z,1014.13
2018-08-22T01:06:26.075Z,1014.17
2018-08-22T01:07:26.073Z,1014.15
2018-08-22T01:08:26.068Z,1014.11
2018-08-22T01:09:26.085Z,1014.08
2018-08-22T01:10:26.069Z,1014.06
2018-08-22T01:11:26.064Z,1014.08
2018-08-22T01:12:26.058Z,1014.06
2018-08-22T01:13:26.053Z,1014.06
2018-08-22T01:14:26.049Z,1014.03
2018-08-22T01:15:26.060Z,1014.04
2018-08-22T01:16:26.048Z,1014.02
2018-08-22T01:17:26.040Z,1014.01
2018-08-22T01:18:26.029Z,1014.01
2018-08-22T01:19:26.040Z,1014.01
2018-08-22T01:20:26.038Z,1013.96
2018-08-22T01:21:26.025Z,1013.93
2018-08-22T01:22:26.030Z,1014.00
2018-08-22T01:23:26.026Z,1014.00
2018-08-22T01:24:26.018Z,1013.97
2018-08-22T01:25:26.007Z,1013.99
2018-08-22T01:26:26.015Z,1013.98
2018-08-22T01:27:26.010Z,1013.97
2018-08-22T01:28:26.000Z,1013.98
2018-08-22T01:29:26.021Z,1013.95
2018-08-22T01:30:25.993Z,1013.98
2018-08-22T01:31:26.009Z,1013.93
2018-08-22T01:32:25.990Z,1013.97
2018-08-22T01:33:25.991Z,1013.95
2018-08-22T01:34:25.989Z,1013.94
2018-08-22T01:35:25.990Z,1013.97
2018-08-22T01:36:25.973Z,1013.97
2018-08-22T01:37:25.976Z,1013.94
2018-08-22T01:38:25.980Z,1013.96
2018-08-22T01:39:25.965Z,1013.96
2018-08-22T01:40:25.965Z,1013.99
2018-08-22T01:41:25.960Z,1013.97
2018-08-22T01:42:25.945Z,1013.98
2018-08-22T01:43:25.950Z,1013.92
2018-08-22T01:44:25.944Z,1013.94
2018-08-22T01:45:25.941Z,1013.93
2018-08-22T01:46:25.945Z,1013.96
2018-08-22T01:47:25.935Z,1013.96
2018-08-22T01:48:25.936Z,1013.92
2018-08-22T01:49:25.940Z,1013.95
2018-08-22T01:50:25.931Z,1013.94
2018-08-22T01:51:25.925Z,1013.94
2018-08-22T01:52:25.925Z,1013.90
2018-08-22T01:53:25.911Z,1013.89
2018-08-22T01:54:25.919Z,1013.92
2018-08-22T01:55:25.913Z,1013.92
2018-08-22T01:56:25.907Z,1013.89
2018-08-22T01:57:25.906Z,1013.89
2018-08-22T01:58:25.900Z,1013.90
2018-08-22T01:59:25.898Z,1013.86
2018-08-22T02:00:25.890Z,1013.88
2018-08-22T02:01:25.888Z,1013.85
2018-08-22T02:02:25.899Z,1013.87
2018-08-22T02:03:25.879Z,1013.88
2018-08-22T02:04:25.878Z,1013.89
2018-08-22T02:05:25.880Z,1013.92
2018-08-22T02:06:25.883Z,1013.87
2018-08-22T02:07:25.875Z,1013.87
2018-08-22T02:08:25.861Z,1013.86
2018-08-22T02:09:25.861Z,1013.83
2018-08-22T02:10:25.857Z,1013.83
2018-08-22T02:11:25.851Z,1013.83
2018-08-22T02:12:25.842Z,1013.81
2018-08-22T02:13:25.845Z,1013.81
2018-08-22T02:14:25.849Z,1013.81
2018-08-22T02:15:25.836Z,1013.83
2018-08-22T02:16:25.846Z,1013.79
2018-08-22T02:17:25.825Z,1013.81
2018-08-22T02:18:25.830Z,1013.80
2018-08-22T02:19:25.826Z,1013.78
2018-08-22T02:20:25.819Z,1013.80
2018-08-22T02:21:25.824Z,1013.78
2018-08-22T02:22:25.815Z,1013.77
2018-08-22T02:23:25.821Z,1013.77
2018-08-22T02:24:25.810Z,1013.78
2018-08-22T02:25:25.802Z,1013.78
2018-08-22T02:26:25.797Z,1013.75
2018-08-22T02:27:25.801Z,1013.76
2018-08-22T02:28:25.815Z,1013.74
2018-08-22T02:29:25.802Z,1013.74
2018-08-22T02:30:25.799Z,1013.77
2018-08-22T02:31:25.804Z,1013.75
2018-08-22T02:32:25.795Z,1013.76
2018-08-22T02:33:25.774Z,1013.77
2018-08-22T02:34:25.786Z,1013.73
2018-08-22T02:35:25.764Z,1013.72
2018-08-22T02:36:25.767Z,1013.80
2018-08-22T02:37:25.769Z,1013.77
2018-08-22T02:38:25.764Z,1013.75
2018-08-22T02:39:25.757Z,1013.72
2018-08-22T02:40:25.750Z,1013.74
2018-08-22T02:41:25.745Z,1013.69
2018-08-22T02:42:25.740Z,1013.71
2018-08-22T02:43:25.744Z,1013.73
2018-08-22T02:44:25.734Z,1013.69
2018-08-22T02:45:25.741Z,1013.68
2018-08-22T02:46:25.735Z,1013.68
2018-08-22T02:47:25.732Z,1013.70
2018-08-22T02:48:25.717Z,1013.69
2018-08-22T02:49:25.727Z,1013.69
2018-08-22T02:50:25.706Z,1013.69
2018-08-22T02:51:25.715Z,1013.68
2018-08-22T02:52:25.716Z,1013.73
2018-08-22T02:53:25.709Z,1013.70
2018-08-22T02:54:25.706Z,1013.71
2018-08-22T02:55:25.700Z,1013.67
2018-08-22T02:56:25.702Z,1013.67
2018-08-22T02:57:25.700Z,1013.67
2018-08-22T02:58:25.696Z,1013.64
2018-08-22T02:59:25.691Z,1013.66
2018-08-22T03:00:25.677Z,1013.64
2018-08-22T03:01:25.686Z,1013.67
2018-08-22T03:02:25.683Z,1013.67
2018-08-22T03:03:25.694Z,1013.68
2018-08-22T03:04:25.665Z,1013.69
2018-08-22T03:05:25.660Z,1013.69
2018-08-22T03:06:25.661Z,1013.68
2018-08-22T03:07:25.663Z,1013.68
2018-08-22T03:08:25.662Z,1013.67
2018-08-22T03:09:25.646Z,1013.69
2018-08-22T03:10:25.635Z,1013.65
2018-08-22T03:11:25.637Z,1013.67
2018-08-22T03:12:25.641Z,1013.68
2018-08-22T03:13:25.636Z,1013.70
2018-08-22T03:14:25.635Z,1013.66
2018-08-22T03:15:25.631Z,1013.69
2018-08-22T03:16:25.632Z,1013.67
2018-08-22T03:17:25.625Z,1013.65
2018-08-22T03:18:25.622Z,1013.67
2018-08-22T03:19:25.614Z,1013.67
2018-08-22T03:20:25.612Z,1013.69
2018-08-22T03:21:25.608Z,1013.65
2018-08-22T03:22:25.622Z,1013.68
2018-08-22T03:23:25.595Z,1013.67
2018-08-22T03:24:25.601Z,1013.65
2018-08-22T03:25:25.601Z,1013.65
2018-08-22T03:26:25.587Z,1013.62
2018-08-22T03:27:25.592Z,1013.64
2018-08-22T03:28:25.587Z,1013.61
2018-08-22T03:29:25.593Z,1013.61
2018-08-22T03:30:25.583Z,1013.62
2018-08-22T03:31:25.571Z,1013.60
2018-08-22T03:32:25.583Z,1013.63
2018-08-22T03:33:25.590Z,1013.58
2018-08-22T03:34:25.570Z,1013.61
2018-08-22T03:35:25.564Z,1013.59
2018-08-22T03:36:25.561Z,1013.62
2018-08-22T03:37:25.552Z,1013.57
2018-08-22T03:38:25.559Z,1013.57
2018-08-22T03:39:25.552Z,1013.59
2018-08-22T03:40:25.552Z,1013.56
2018-08-22T03:41:25.540Z,1013.54
2018-08-22T03:42:25.541Z,1013.55
2018-08-22T03:43:25.536Z,1013.52
2018-08-22T03:44:25.533Z,1013.56
2018-08-22T03:45:25.523Z,1013.57
2018-08-22T03:46:25.518Z,1013.54
2018-08-22T03:47:25.521Z,1013.58
2018-08-22T03:48:25.511Z,1013.55
2018-08-22T03:49:25.522Z,1013.60
2018-08-22T03:50:25.508Z,1013.56
2018-08-22T03:51:25.506Z,1013.60
2018-08-22T03:52:25.501Z,1013.59
2018-08-22T03:53:25.499Z,1013.61
2018-08-22T03:54:25.493Z,1013.57
2018-08-22T03:55:25.494Z,1013.56
2018-08-22T03:56:25.491Z,1013.59
2018-08-22T03:57:25.491Z,1013.58
2018-08-22T03:58:25.474Z,1013.58
2018-08-22T03:59:25.476Z,1013.61
2018-08-22T04:00:25.482Z,1013.60
2018-08-22T04:01:25.466Z,1013.59
2018-08-22T04:02:25.464Z,1013.60
2018-08-22T04:03:25.477Z,1013.59
2018-08-22T04:04:25.458Z,1013.59
2018-08-22T04:05:25.462Z,1013.58
2018-08-22T04:06:25.452Z,1013.60
2018-08-22T04:07:25.462Z,1013.64
2018-08-22T04:08:25.443Z,1013.64
2018-08-22T04:09:25.446Z,1013.64
2018-08-22T04:10:25.449Z,1013.64
2018-08-22T04:11:25.439Z,1013.65
2018-08-22T04:12:25.432Z,1013.64
2018-08-22T04:13:25.432Z,1013.66
2018-08-22T04:14:25.420Z,1013.65
2018-08-22T04:15:25.422Z,1013.64
2018-08-22T04:16:25.455Z,1013.64
2018-08-22T04:17:25.423Z,1013.64
2018-08-22T04:18:25.408Z,1013.63
2018-08-22T04:19:25.399Z,1013.66
2018-08-22T04:20:25.420Z,1013.67
2018-08-22T04:21:25.397Z,1013.64
2018-08-22T04:22:25.402Z,1013.68
2018-08-22T04:23:25.393Z,1013.70
2018-08-22T04:24:25.391Z,1013.69
2018-08-22T04:25:25.393Z,1013.67
2018-08-22T04:26:25.383Z,1013.67
2018-08-22T04:27:25.385Z,1013.68
2018-08-22T04:28:25.377Z,1013.65
2018-08-22T04:29:25.371Z,1013.65
2018-08-22T04:30:25.373Z,1013.65
2018-08-22T04:31:25.367Z,1013.65
2018-08-22T04:32:25.359Z,1013.67
2018-08-22T04:33:25.354Z,1013.64
2018-08-22T04:34:25.356Z,1013.63
2018-08-22T04:35:25.360Z,1013.66
2018-08-22T04:36:25.352Z,1013.65
2018-08-22T04:37:25.397Z,1013.67
2018-08-22T04:38:25.348Z,1013.62
2018-08-22T04:39:25.333Z,1013.63
2018-08-22T04:40:25.334Z,1013.62
2018-08-22T04:41:25.325Z,1013.63
2018-08-22T04:42:25.328Z,1013.63
2018-08-22T04:43:25.314Z,1013.63
2018-08-22T04:44:25.317Z,1013.63
2018-08-22T04:45:25.308Z,1013.62
2018-08-22T04:46:25.307Z,1013.61
2018-08-22T04:47:25.307Z,1013.60
2018-08-22T04:48:25.306Z,1013.60
2018-08-22T04:49:25.302Z,1013.63
2018-08-22T04:50:25.301Z,1013.60
2018-08-22T04:51:25.297Z,1013.58
2018-08-22T04:52:25.290Z,1013.63
2018-08-22T04:53:25.288Z,1013.59
2018-08-22T04:54:25.288Z,1013.58
2018-08-22T04:55:25.283Z,1013.58
2018-08-22T04:56:25.272Z,1013.57
2018-08-22T04:57:25.273Z,1013.61
2018-08-22T04:58:25.274Z,1013.59
2018-08-22T04:59:25.269Z,1013.58
2018-08-22T05:00:25.265Z,1013.57
2018-08-22T05:01:25.262Z,1013.56
2018-08-22T05:02:25.262Z,1013.60
2018-08-22T05:03:25.249Z,1013.57
2018-08-22T05:04:25.252Z,1013.61
2018-08-22T05:05:25.249Z,1013.57
2018-08-22T05:06:25.244Z,1013.56
2018-08-22T05:07:25.238Z,1013.55
2018-08-22T05:08:25.234Z,1013.59
2018-08-22T05:09:25.234Z,1013.57
2018-08-22T05:10:25.228Z,1013.60
2018-08-22T05:11:25.240Z,1013.60
2018-08-22T05:12:25.218Z,1013.60
2018-08-22T05:13:25.218Z,1013.63
2018-08-22T05:14:25.218Z,1013.62
2018-08-22T05:15:25.207Z,1013.63
2018-08-22T05:16:25.208Z,1013.64
2018-08-22T05:17:25.199Z,1013.65
2018-08-22T05:18:25.203Z,1013.65
2018-08-22T05:19:25.199Z,1013.66
2018-08-22T05:20:25.207Z,1013.63
2018-08-22T05:21:25.187Z,1013.64
2018-08-22T05:22:25.189Z,1013.65
2018-08-22T05:23:25.178Z,1013.64
2018-08-22T05:24:25.176Z,1013.67
2018-08-22T05:25:25.183Z,1013.65
2018-08-22T05:26:25.173Z,1013.66
2018-08-22T05:27:25.177Z,1013.65
2018-08-22T05:28:25.160Z,1013.66
2018-08-22T05:29:25.158Z,1013.67
2018-08-22T05:30:25.156Z,1013.67
2018-08-22T05:31:25.153Z,1013.63
2018-08-22T05:32:25.153Z,1013.64
2018-08-22T05:33:25.155Z,1013.61
2018-08-22T05:34:25.145Z,1013.61
2018-08-22T05:35:25.149Z,1013.59
2018-08-22T05:36:25.140Z,1013.59
2018-08-22T05:37:25.133Z,1013.60
2018-08-22T05:38:25.118Z,1013.61
2018-08-22T05:39:25.128Z,1013.60
2018-08-22T05:40:25.118Z,1013.62
2018-08-22T05:41:25.114Z,1013.58
2018-08-22T05:42:25.120Z,1013.60
2018-08-22T05:43:25.108Z,1013.62
2018-08-22T05:44:25.094Z,1013.58
2018-08-22T05:45:25.094Z,1013.60
2018-08-22T05:46:25.106Z,1013.57
2018-08-22T05:47:25.099Z,1013.59
2018-08-22T05:48:25.095Z,1013.58
2018-08-22T05:49:25.092Z,1013.62
2018-08-22T05:50:25.084Z,1013.60
2018-08-22T05:51:25.084Z,1013.58
2018-08-22T05:52:25.074Z,1013.58
2018-08-22T05:53:25.070Z,1013.59
2018-08-22T05:54:25.076Z,1013.56
2018-08-22T05:55:25.071Z,1013.58
2018-08-22T05:56:25.070Z,1013.59
2018-08-22T05:57:25.101Z,1013.57
2018-08-22T05:58:25.065Z,1013.55
2018-08-22T05:59:25.053Z,1013.59
2018-08-22T06:00:25.051Z,1013.63
2018-08-22T06:01:25.042Z,1013.57
2018-08-22T06:02:25.040Z,1013.56
2018-08-22T06:03:25.076Z,1013.59
2018-08-22T06:04:25.046Z,1013.58
2018-08-22T06:05:25.036Z,1013.61
2018-08-22T06:06:25.028Z,1013.58
2018-08-22T06:07:25.024Z,1013.61
2018-08-22T06:08:25.019Z,1013.61
2018-08-22T06:09:25.011Z,1013.63
2018-08-22T06:10:25.029Z,1013.63
2018-08-22T06:11:25.015Z,1013.65
2018-08-22T06:12:25.011Z,1013.64
2018-08-22T06:13:25.006Z,1013.62
2018-08-22T06:14:25.018Z,1013.65
2018-08-22T06:15:24.999Z,1013.68
2018-08-22T06:16:24.999Z,1013.68
2018-08-22T06:17:24.987Z,1013.61
2018-08-22T06:18:24.991Z,1013.61
2018-08-22T06:19:24.997Z,1013.63
2018-08-22T06:20:24.989Z,1013.63
2018-08-22T06:21:25.000Z,1013.64
2018-08-22T06:22:24.974Z,1013.61
2018-08-22T06:23:24.976Z,1013.62
2018-08-22T06:24:24.977Z,1013.66
2018-08-22T06:25:25.013Z,1013.60
2018-08-22T06:26:24.960Z,1013.64
2018-08-22T06:27:24.956Z,1013.65
2018-08-22T06:28:24.952Z,1013.68
2018-08-22T06:29:24.952Z,1013.67
2018-08-22T06:30:24.942Z,1013.66
2018-08-22T06:31:24.967Z,1013.65
2018-08-22T06:32:24.934Z,1013.67
2018-08-22T06:33:24.938Z,1013.67
2018-08-22T06:34:24.942Z,1013.61
2018-08-22T06:35:24.935Z,1013.61
2018-08-22T06:36:25.032Z,1013.63
2018-08-22T06:37:24.924Z,1013.66
2018-08-22T06:38:24.915Z,1013.63
2018-08-22T06:39:24.922Z,1013.60
2018-08-22T06:40:24.912Z,1013.61
2018-08-22T06:41:24.920Z,1013.61
2018-08-22T06:42:24.905Z,1013.60
2018-08-22T06:43:24.914Z,1013.58
2018-08-22T06:44:24.895Z,1013.61
2018-08-22T06:45:24.892Z,1013.61
2018-08-22T06:46:24.900Z,1013.61
2018-08-22T06:47:24.891Z,1013.61
2018-08-22T06:48:24.905Z,1013.64
2018-08-22T06:49:24.881Z,1013.67
2018-08-22T06:50:24.890Z,1013.66
2018-08-22T06:51:24.884Z,1013.67
2018-08-22T06:52:24.866Z,1013.71
2018-08-22T06:53:24.867Z,1013.68
2018-08-22T06:54:24.891Z,1013.70
2018-08-22T06:55:24.863Z,1013.70
2018-08-22T06:56:24.861Z,1013.70
2018-08-22T06:57:24.857Z,1013.72
2018-08-22T06:58:24.855Z,1013.73
2018-08-22T06:59:24.855Z,1013.71
2018-08-22T07:00:24.840Z,1013.72
2018-08-22T07:01:24.841Z,1013.74
2018-08-22T07:02:24.848Z,1013.74
2018-08-22T07:03:24.838Z,1013.72
2018-08-22T07:04:24.826Z,1013.74
2018-08-22T07:05:24.847Z,1013.70
2018-08-22T07:06:24.827Z,1013.67
2018-08-22T07:07:24.820Z,1013.67
2018-08-22T07:08:24.816Z,1013.64
2018-08-22T07:09:24.806Z,1013.65
2018-08-22T07:10:24.802Z,1013.66
2018-08-22T07:11:24.806Z,1013.69
2018-08-22T07:12:24.812Z,1013.64
2018-08-22T07:13:24.797Z,1013.64
2018-08-22T07:14:24.792Z,1013.65
2018-08-22T07:15:24.815Z,1013.66
2018-08-22T07:16:24.792Z,1013.63
2018-08-22T07:17:24.785Z,1013.61
2018-08-22T07:18:24.786Z,1013.65
2018-08-22T07:19:24.778Z,1013.68
2018-08-22T07:20:24.776Z,1013.68
2018-08-22T07:21:24.776Z,1013.68
2018-08-22T07:22:24.763Z,1013.69
2018-08-22T07:23:24.777Z,1013.69
2018-08-22T07:24:24.766Z,1013.67
2018-08-22T07:25:24.761Z,1013.72
2018-08-22T07:26:24.752Z,1013.69
2018-08-22T07:27:24.758Z,1013.71
2018-08-22T07:28:24.747Z,1013.70
2018-08-22T07:29:24.737Z,1013.70
2018-08-22T07:30:24.752Z,1013.72
2018-08-22T07:31:24.737Z,1013.70
2018-08-22T07:32:24.737Z,1013.75
2018-08-22T07:33:24.728Z,1013.71
2018-08-22T07:34:24.730Z,1013.71
2018-08-22T07:35:24.723Z,1013.69
2018-08-22T07:36:24.724Z,1013.68
2018-08-22T07:37:24.719Z,1013.68
2018-08-22T07:38:24.716Z,1013.69
2018-08-22T07:39:24.724Z,1013.69
2018-08-22T07:40:24.703Z,1013.67
2018-08-22T07:41:24.723Z,1013.68
2018-08-22T07:42:24.704Z,1013.70
2018-08-22T07:43:24.702Z,1013.68
2018-08-22T07:44:24.707Z,1013.68
2018-08-22T07:45:24.700Z,1013.67
2018-08-22T07:46:24.688Z,1013.67
2018-08-22T07:47:24.685Z,1013.66
2018-08-22T07:48:24.686Z,1013.69
2018-08-22T07:49:24.674Z,1013.65
2018-08-22T07:50:24.707Z,1013.64
2018-08-22T07:51:24.671Z,1013.69
2018-08-22T07:52:24.667Z,1013.64
2018-08-22T07:53:24.710Z,1013.65
2018-08-22T07:54:24.663Z,1013.65
2018-08-22T07:55:24.672Z,1013.66
2018-08-22T07:56:24.665Z,1013.68
2018-08-22T07:57:24.643Z,1013.68
2018-08-22T07:58:24.653Z,1013.66
2018-08-22T07:59:24.651Z,1013.64
2018-08-22T08:00:24.642Z,1013.63
2018-08-22T08:01:24.644Z,1013.61
2018-08-22T08:02:24.643Z,1013.62
2018-08-22T08:03:24.640Z,1013.63
2018-08-22T08:04:24.641Z,1013.63
2018-08-22T08:05:24.691Z,1013.60
2018-08-22T08:06:24.633Z,1013.63
2018-08-22T08:07:24.622Z,1013.63
2018-08-22T08:08:24.639Z,1013.66
2018-08-22T08:09:24.612Z,1013.66
2018-08-22T08:10:24.620Z,1013.68
2018-08-22T08:11:24.617Z,1013.65
2018-08-22T08:12:24.611Z,1013.68
2018-08-22T08:13:24.623Z,1013.70
2018-08-22T08:14:24.603Z,1013.69
2018-08-22T08:15:24.593Z,1013.66
2018-08-22T08:16:24.591Z,1013.65
2018-08-22T08:17:24.598Z,1013.66
2018-08-22T08:18:24.615Z,1013.67
2018-08-22T08:19:24.591Z,1013.68
2018-08-22T08:20:24.592Z,1013.68
2018-08-22T08:21:24.576Z,1013.69
2018-08-22T08:22:24.572Z,1013.68
2018-08-22T08:23:24.571Z,1013.67
2018-08-22T08:24:24.575Z,1013.67
2018-08-22T08:25:24.577Z,1013.64
2018-08-22T08:26:24.562Z,1013.67
2018-08-22T08:27:24.561Z,1013.64
2018-08-22T08:28:24.568Z,1013.67
2018-08-22T08:29:24.553Z,1013.69
2018-08-22T08:30:24.603Z,1013.65
2018-08-22T08:31:24.551Z,1013.69
2018-08-22T08:32:24.550Z,1013.66
2018-08-22T08:33:24.538Z,1013.65
2018-08-22T08:34:24.533Z,1013.65
2018-08-22T08:35:24.538Z,1013.61
2018-08-22T08:36:24.537Z,1013.59
2018-08-22T08:37:24.557Z,1013.57
2018-08-22T08:38:24.524Z,1013.58
2018-08-22T08:39:24.521Z,1013.57
2018-08-22T08:40:24.523Z,1013.56
2018-08-22T08:41:24.540Z,1013.55
2018-08-22T08:42:24.515Z,1013.56
2018-08-22T08:43:24.560Z,1013.55
2018-08-22T08:44:24.508Z,1013.56
2018-08-22T08:45:24.529Z,1013.56
2018-08-22T08:46:24.501Z,1013.57
2018-08-22T08:47:24.488Z,1013.60
2018-08-22T08:48:24.501Z,1013.61
2018-08-22T08:49:24.541Z,1013.59
2018-08-22T08:50:24.484Z,1013.57
2018-08-22T08:51:24.495Z,1013.57
2018-08-22T08:52:24.486Z,1013.56
2018-08-22T08:53:24.479Z,1013.53
2018-08-22T08:54:24.480Z,1013.59
2018-08-22T08:55:24.483Z,1013.56
2018-08-22T08:56:24.477Z,1013.55
2018-08-22T08:57:24.530Z,1013.58
2018-08-22T08:58:24.473Z,1013.58
2018-08-22T08:59:24.453Z,1013.55
2018-08-22T09:00:24.461Z,1013.57
2018-08-22T09:01:24.472Z,1013.54
2018-08-22T09:02:24.446Z,1013.54
2018-08-22T09:03:24.440Z,1013.55
2018-08-22T09:04:24.443Z,1013.49
2018-08-22T09:05:24.467Z,1013.51
2018-08-22T09:06:24.469Z,1013.46
2018-08-22T09:07:24.436Z,1013.44
2018-08-22T09:08:24.429Z,1013.43
2018-08-22T09:09:24.429Z,1013.44
2018-08-22T09:10:24.433Z,1013.41
2018-08-22T09:11:24.437Z,1013.45
2018-08-22T09:12:24.496Z,1013.45
2018-08-22T09:13:24.408Z,1013.43
2018-08-22T09:14:24.407Z,1013.44
2018-08-22T09:15:24.399Z,1013.44
2018-08-22T09:16:24.407Z,1013.43
2018-08-22T09:17:24.440Z,1013.45
2018-08-22T09:18:24.413Z,1013.42
2018-08-22T09:19:24.416Z,1013.44
2018-08-22T09:20:24.397Z,1013.42
2018-08-22T09:21:24.390Z,1013.41
2018-08-22T09:22:24.386Z,1013.41
2018-08-22T09:23:24.392Z,1013.44
2018-08-22T09:24:24.389Z,1013.40
2018-08-22T09:25:24.389Z,1013.34
2018-08-22T09:26:24.387Z,1013.37
2018-08-22T09:27:24.375Z,1013.31
2018-08-22T09:28:24.377Z,1013.35
2018-08-22T09:29:24.368Z,1013.30
2018-08-22T09:30:24.362Z,1013.29
2018-08-22T09:31:24.381Z,1013.25
2018-08-22T09:32:24.355Z,1013.28
2018-08-22T09:33:24.347Z,1013.25
2018-08-22T09:34:24.411Z,1013.26
2018-08-22T09:35:24.391Z,1013.24
2018-08-22T09:36:24.366Z,1013.21
2018-08-22T09:37:24.351Z,1013.22
2018-08-22T09:38:24.327Z,1013.24
2018-08-22T09:39:24.340Z,1013.23
2018-08-22T09:40:24.355Z,1013.23
2018-08-22T09:41:24.339Z,1013.21
2018-08-22T09:42:24.334Z,1013.23
2018-08-22T09:43:24.334Z,1013.20
2018-08-22T09:44:24.317Z,1013.18
2018-08-22T09:45:24.319Z,1013.20
2018-08-22T09:46:24.315Z,1013.18
2018-08-22T09:47:24.323Z,1013.16
2018-08-22T09:48:24.304Z,1013.13
2018-08-22T09:49:24.309Z,1013.13
2018-08-22T09:50:24.332Z,1013.13
2018-08-22T09:51:24.304Z,1013.15
2018-08-22T09:52:24.294Z,1013.10
2018-08-22T09:53:24.300Z,1013.10
2018-08-22T09:54:24.318Z,1013.05
2018-08-22T09:55:24.284Z,1012.97
2018-08-22T09:56:24.292Z,1013.07
2018-08-22T09:57:24.274Z,1013.06
2018-08-22T09:58:24.283Z,1013.10
2018-08-22T09:59:24.272Z,1013.07
2018-08-22T10:00:24.273Z,1013.12
2018-08-22T10:01:24.265Z,1013.10
2018-08-22T10:02:24.257Z,1013.11
2018-08-22T10:03:24.279Z,1013.11
2018-08-22T10:04:24.258Z,1013.09
2018-08-22T10:05:24.255Z,1013.07
2018-08-22T10:06:24.317Z,1013.07
2018-08-22T10:07:24.301Z,1013.07
2018-08-22T10:08:24.245Z,1013.08
2018-08-22T10:09:24.286Z,1013.05
2018-08-22T10:10:24.259Z,1013.10
2018-08-22T10:11:24.235Z,1013.08
2018-08-22T10:12:24.230Z,1013.03
2018-08-22T10:13:24.233Z,1013.08
2018-08-22T10:14:24.230Z,1013.08
2018-08-22T10:15:24.234Z,1013.04
2018-08-22T10:16:24.222Z,1013.05
2018-08-22T10:17:24.292Z,1013.05
2018-08-22T10:18:24.218Z,1013.09
2018-08-22T10:19:24.215Z,1013.04
2018-08-22T10:20:24.202Z,1013.03
2018-08-22T10:21:24.201Z,1013.01
2018-08-22T10:22:24.213Z,1013.02
2018-08-22T10:23:24.238Z,1012.98
2018-08-22T10:24:24.196Z,1012.99
2018-08-22T10:25:24.197Z,1012.97
2018-08-22T10:26:24.217Z,1012.97
2018-08-22T10:27:24.200Z,1012.92
2018-08-22T10:28:24.186Z,1012.90
2018-08-22T10:29:24.186Z,1012.93
2018-08-22T10:30:24.180Z,1012.94
2018-08-22T10:31:24.169Z,1012.90
2018-08-22T10:32:24.168Z,1012.92
2018-08-22T10:33:24.174Z,1012.89
2018-08-22T10:34:24.163Z,1012.90
2018-08-22T10:35:24.161Z,1012.91
2018-08-22T10:36:24.154Z,1012.89
2018-08-22T10:37:24.159Z,1012.89
2018-08-22T10:38:24.176Z,1012.89
2018-08-22T10:39:24.145Z,1012.87
2018-08-22T10:40:24.154Z,1012.86
2018-08-22T10:41:24.147Z,1012.85
2018-08-22T10:42:24.143Z,1012.82
2018-08-22T10:43:24.129Z,1012.83
2018-08-22T10:44:24.191Z,1012.80
2018-08-22T10:45:24.137Z,1012.81
2018-08-22T10:46:24.130Z,1012.80
2018-08-22T10:47:24.123Z,1012.78
2018-08-22T10:48:24.165Z,1012.80
2018-08-22T10:49:24.149Z,1012.76
2018-08-22T10:50:24.114Z,1012.73
2018-08-22T10:51:24.115Z,1012.71
2018-08-22T10:52:24.111Z,1012.67
2018-08-22T10:53:24.106Z,1012.66
2018-08-22T10:54:24.095Z,1012.66
2018-08-22T10:55:24.105Z,1012.67
2018-08-22T10:56:24.094Z,1012.65
2018-08-22T10:57:24.090Z,1012.62
2018-08-22T10:58:24.105Z,1012.64
2018-08-22T10:59:24.090Z,1012.65
2018-08-22T11:00:24.085Z,1012.62
2018-08-22T11:01:24.092Z,1012.59
2018-08-22T11:02:24.071Z,1012.64
2018-08-22T11:03:24.096Z,1012.62
2018-08-22T11:04:24.076Z,1012.60
2018-08-22T11:05:24.077Z,1012.60
2018-08-22T11:06:24.070Z,1012.62
2018-08-22T11:07:24.077Z,1012.63
2018-08-22T11:08:24.061Z,1012.59
2018-08-22T11:09:24.060Z,1012.60
2018-08-22T11:10:24.061Z,1012.57
2018-08-22T11:11:24.051Z,1012.59
2018-08-22T11:12:24.046Z,1012.60
2018-08-22T11:13:24.078Z,1012.57
2018-08-22T11:14:24.042Z,1012.57
2018-08-22T11:15:24.040Z,1012.56
2018-08-22T11:16:24.037Z,1012.55
2018-08-22T11:17:24.037Z,1012.53
2018-08-22T11:18:24.044Z,1012.59
2018-08-22T11:19:24.030Z,1012.58
2018-08-22T11:20:24.040Z,1012.58
2018-08-22T11:21:24.017Z,1012.57
2018-08-22T11:22:24.063Z,1012.55
2018-08-22T11:23:24.026Z,1012.55
2018-08-22T11:24:24.002Z,1012.54
2018-08-22T11:25:24.011Z,1012.56
2018-08-22T11:26:24.012Z,1012.51
2018-08-22T11:27:24.000Z,1012.52
2018-08-22T11:28:23.994Z,1012.51
2018-08-22T11:29:23.999Z,1012.50
2018-08-22T11:30:23.999Z,1012.52
2018-08-22T11:31:23.999Z,1012.55
2018-08-22T11:32:23.999Z,1012.51
2018-08-22T11:33:23.996Z,1012.49
2018-08-22T11:34:23.987Z,1012.48
2018-08-22T11:35:23.985Z,1012.49
2018-08-22T11:36:23.977Z,1012.50
2018-08-22T11:37:23.970Z,1012.46
2018-08-22T11:38:23.976Z,1012.49
2018-08-22T11:39:23.976Z,1012.54
2018-08-22T11:40:23.965Z,1012.50
2018-08-22T11:41:23.956Z,1012.54
2018-08-22T11:42:23.955Z,1012.51
2018-08-22T11:43:23.956Z,1012.53
2018-08-22T11:44:23.951Z,1012.55
2018-08-22T11:45:23.952Z,1012.52
2018-08-22T11:46:23.962Z,1012.50
2018-08-22T11:47:23.927Z,1012.53
2018-08-22T11:48:23.936Z,1012.51
2018-08-22T11:49:23.932Z,1012.49
2018-08-22T11:50:23.940Z,1012.50
2018-08-22T11:51:23.925Z,1012.49
2018-08-22T11:52:23.922Z,1012.44
2018-08-22T11:53:23.930Z,1012.44
2018-08-22T11:54:23.925Z,1012.44
2018-08-22T11:55:23.914Z,1012.42
2018-08-22T11:56:23.912Z,1012.47
2018-08-22T11:57:23.931Z,1012.45
2018-08-22T11:58:23.926Z,1012.45
2018-08-22T11:59:23.905Z,1012.46
2018-08-22T12:00:23.893Z,1012.44
2018-08-22T12:01:23.896Z,1012.43
2018-08-22T12:02:23.917Z,1012.42
2018-08-22T12:03:23.895Z,1012.42
2018-08-22T12:04:23.895Z,1012.43
2018-08-22T12:05:23.886Z,1012.41